Terminal Aerodrome Forecast
Issued by NWS Louisville, KY

Home | Current Version | Previous Version | Text Only | Print | Product List | Glossary On
Versions: 1 2 3 4 5 6 7 8 9 10 11 12 13 14 15 16
346
FTUS43 KLMK 042324
TAFBWG
TAF
KBWG 042324Z 0500/0524 25005KT 2SM -DZ BR OVC007
     FM050600 VRB03KT 2SM BR OVC005
     FM051500 08005KT P6SM BKN015
     FM051900 10006KT P6SM BKN035=

USA.gov is the U.S. government's official web portal to all federal, state and local government web resources and services.